Flight Track Log - Related Links

Times and Time Zones

All times are in EDT time to prevent confusion due to time zone crossing. See the AFR1709 flight status page for this flight to view local times or setup timezone preferences in your user account.

Time Position Orientation Groundspeed Altitude Reporting Facility
EDT Latitude Longitude Course Direction KTS MPH feet Rate Location/Type
Sun 07:28:32 AM 48.7974 7.7082 276° West  Level Estimated
Sun 07:29:32 AM 48.8036 7.6105 276° West  Level Estimated
Sun 07:30:32 AM 48.8098 7.5128 275° West  Level Estimated
Sun 07:31:32 AM 48.8158 7.4151 275° West  Level Estimated
Sun 07:32:32 AM 48.8218 7.3174 275° West  Level Estimated
Sun 07:33:32 AM 48.8277 7.2196 275° West  Level Estimated
Sun 07:34:32 AM 48.8336 7.1218 275° West  Level Estimated
Sun 07:35:32 AM 48.8393 7.0240 275° West  Level Estimated
Sun 07:36:32 AM 48.8450 6.9262 275° West  Level Estimated
Sun 07:37:32 AM 48.8506 6.8283 275° West  Level Estimated
Sun 07:38:32 AM 48.8560 6.7305 275° West  Level Estimated
Sun 07:39:32 AM 48.8615 6.6325 275° West  Level Estimated
Sun 07:40:32 AM 48.8668 6.5346 275° West  Level Estimated
Sun 07:41:32 AM 48.8720 6.4367 275° West  Level Estimated
Sun 07:42:32 AM 48.8772 6.3387 275° West  Level Estimated
Sun 07:43:32 AM 48.8823 6.2407 274° West  Level Estimated
Sun 07:44:32 AM 48.8873 6.1427 274° West  Level Estimated
Sun 07:45:32 AM 48.8922 6.0447 274° West  Level Estimated
Sun 07:46:32 AM 48.8970 5.9481 274° West  Level Estimated
Sun 07:47:32 AM 48.9016 5.8515 274° West  Level Estimated
Sun 07:48:32 AM 48.9062 5.7548 274° West  Level Estimated
Sun 07:49:32 AM 48.9108 5.6582 274° West  Level Estimated
Sun 07:50:32 AM 48.9152 5.5615 274° West  Level Estimated
Sun 07:51:32 AM 48.9196 5.4648 274° West  Level Estimated
Sun 07:52:32 AM 48.9238 5.3681 274° West  Level Estimated
Sun 07:53:32 AM 48.9280 5.2713 274° West  Level Estimated
Sun 07:54:32 AM 48.9322 5.1746 274° West  Level Estimated
Sun 07:55:32 AM 48.9362 5.0778 274° West  Level Estimated
Sun 07:56:32 AM 48.9402 4.9810 274° West  Level Estimated
Sun 07:57:32 AM 48.9440 4.8842 273° West  Level Estimated
Sun 07:58:32 AM 48.9478 4.7874 273° West  Level Estimated
Sun 07:59:32 AM 48.9515 4.6906 273° West  Level Estimated
Sun 08:00:32 AM 48.9552 4.5937 273° West  Level Estimated
Sun 08:01:32 AM 48.9587 4.4969 273° West  Level Estimated
Sun 08:02:32 AM 48.9622 4.4000 273° West  Level Estimated
Sun 08:03:32 AM 48.9656 4.3031 273° West  Level Estimated
Sun 08:04:32 AM 48.9689 4.2062 273° West  Level Estimated
Sun 08:05:32 AM 48.9721 4.1093 273° West  Level Estimated
Sun 08:06:32 AM 48.9752 4.0124 273° West  Level Estimated
Sun 08:07:32 AM 48.9783 3.9155 273° West  Level Estimated
Sun 08:08:32 AM 48.9813 3.8185 273° West  Level Estimated
Sun 08:09:32 AM 48.9842 3.7216 273° West  Level Estimated
Sun 08:10:32 AM 48.9870 3.6246 273° West  Level Estimated
Sun 08:11:32 AM 48.9897 3.5276 272° West  Level Estimated
Sun 08:12:32 AM 48.9924 3.4306 272° West  Level Estimated
Sun 08:13:32 AM 48.9950 3.3336 272° West  Level Estimated
Sun 08:14:32 AM 48.9975 3.2366 272° West  Level Estimated
Sun 08:15:32 AM 48.9999 3.1396 272° West  Level Estimated
Sun 08:16:32 AM 49.0023 3.0366 272° West  Level Estimated
Sun 08:17:32 AM 49.0047 2.9336 272° West  Level Estimated
Sun 08:18:32 AM 49.0070 2.8306 272° West  Level Estimated
Sun 08:19:32 AM 49.0092 2.7275 272° West  Level Estimated
Sun 08:20:32 AM 49.0113 2.6245 272° West  Level Estimated
Sun 08:21:32 AM 49.0133 2.5230 92° East  Level Estimated
Sun 08:22:32 AM 49.0113 2.6245 272° West  Level Estimated
Sun 08:23:32 AM 49.0133 2.5230 92° East  Level Estimated
Sun 08:24:32 AM 49.0113 2.6245 272° West  Level Estimated
Sun 08:25:32 AM 49.0133 2.5230 92° East  Level Estimated
Sun 08:26:32 AM 49.0113 2.6245 272° West  Level Estimated
Sun 08:27:32 AM 49.0133 2.5230 92° East  Level Estimated
Sun 08:28:32 AM 49.0113 2.6245 272° West  Level Estimated
Sun 08:29:32 AM 49.0133 2.5230 92° East  Level Estimated
Sun 08:30:32 AM 49.0113 2.6245 272° West  Level Estimated
Sun 08:31:32 AM 49.0133 2.5230 272° West  Level Estimated

Login

Don't have an account? Register now (free) for customized features, flight alerts, and more!